createdAt,value
2023-01-09T00:01:50.499Z,21.58
2023-01-09T00:04:19.950Z,21.59
2023-01-09T00:06:54.825Z,21.60
2023-01-09T00:09:24.904Z,21.62
2023-01-09T00:11:53.907Z,21.65
2023-01-09T00:14:23.970Z,21.66
2023-01-09T00:16:52.456Z,21.66
2023-01-09T00:19:20.844Z,21.66
2023-01-09T00:21:49.534Z,21.66
2023-01-09T00:24:17.926Z,21.66
2023-01-09T00:26:46.287Z,21.67
2023-01-09T00:29:14.724Z,21.67
2023-01-09T00:31:43.034Z,21.70
2023-01-09T00:34:11.611Z,21.73
2023-01-09T00:36:39.957Z,21.77
2023-01-09T00:39:08.308Z,21.79
2023-01-09T00:41:44.429Z,21.83
2023-01-09T00:44:31.153Z,21.85
2023-01-09T00:47:08.822Z,21.90
2023-01-09T00:49:39.037Z,21.95
2023-01-09T00:52:10.512Z,22.01
2023-01-09T00:54:40.514Z,22.06
2023-01-09T00:57:12.225Z,22.12
2023-01-09T00:59:42.237Z,22.17
2023-01-09T01:02:10.893Z,22.23
2023-01-09T01:04:57.638Z,22.30
2023-01-09T01:07:41.149Z,22.39
2023-01-09T01:10:23.997Z,22.48
2023-01-09T01:12:53.952Z,22.54
2023-01-09T01:15:23.055Z,22.59
2023-01-09T01:17:51.360Z,22.67
2023-01-09T01:20:20.273Z,22.71
2023-01-09T01:22:49.099Z,22.77
2023-01-09T01:25:18.478Z,22.80
2023-01-09T01:27:46.813Z,22.87
2023-01-09T01:30:16.919Z,22.91
2023-01-09T01:32:45.930Z,22.96
2023-01-09T01:35:14.720Z,23.06
2023-01-09T01:37:43.157Z,23.12
2023-01-09T01:40:12.466Z,23.22
2023-01-09T01:42:51.042Z,23.30
2023-01-09T01:45:22.125Z,23.35
2023-01-09T01:48:05.914Z,23.38
2023-01-09T01:50:47.711Z,23.42
2023-01-09T01:53:38.141Z,23.47
2023-01-09T01:56:21.843Z,23.48
2023-01-09T01:59:06.575Z,23.55
2023-01-09T02:01:37.339Z,23.65
2023-01-09T02:04:06.257Z,23.79
2023-01-09T02:06:36.170Z,23.89
2023-01-09T02:09:07.461Z,23.98
2023-01-09T02:11:36.220Z,24.07
2023-01-09T02:14:04.962Z,24.12
2023-01-09T02:16:57.183Z,24.18
2023-01-09T02:19:43.450Z,24.24
2023-01-09T02:22:37.507Z,24.30
2023-01-09T02:25:17.766Z,24.34
2023-01-09T02:28:04.721Z,24.41
2023-01-09T02:30:50.355Z,24.47
2023-01-09T02:33:39.786Z,24.51
2023-01-09T02:36:08.096Z,24.54
2023-01-09T02:38:54.537Z,24.55
2023-01-09T02:41:30.377Z,24.59
2023-01-09T02:44:17.968Z,24.67
2023-01-09T02:46:46.477Z,24.73
2023-01-09T02:49:18.044Z,24.78
2023-01-09T02:51:48.919Z,24.82
2023-01-09T02:54:49.258Z,24.82
2023-01-09T02:57:41.662Z,24.83
2023-01-09T03:00:22.078Z,24.89
2023-01-09T03:03:32.760Z,24.98
2023-01-09T03:06:12.996Z,25.08
2023-01-09T03:09:01.651Z,25.18
2023-01-09T03:11:36.732Z,25.24
2023-01-09T03:14:12.814Z,25.33
2023-01-09T03:16:41.167Z,25.43
2023-01-09T03:19:14.936Z,25.50
2023-01-09T03:21:43.961Z,25.61
2023-01-09T03:24:12.297Z,25.70
2023-01-09T03:26:41.281Z,25.80
2023-01-09T03:29:10.921Z,25.89
2023-01-09T03:31:39.332Z,25.96
2023-01-09T03:34:07.740Z,26.04
2023-01-09T03:36:36.019Z,26.10
2023-01-09T03:39:04.389Z,26.19
2023-01-09T03:41:32.685Z,26.28
2023-01-09T03:44:00.945Z,26.34
2023-01-09T03:46:31.318Z,26.40
2023-01-09T03:48:59.879Z,26.44
2023-01-09T03:51:28.405Z,26.51
2023-01-09T03:53:56.782Z,26.55
2023-01-09T03:56:26.474Z,26.62
2023-01-09T03:58:54.759Z,26.67
2023-01-09T04:01:23.187Z,26.75
2023-01-09T04:03:51.584Z,26.84
2023-01-09T04:06:19.883Z,26.93
2023-01-09T04:08:48.224Z,27.03
2023-01-09T04:11:18.900Z,27.08
2023-01-09T04:13:47.211Z,27.16
2023-01-09T04:16:15.569Z,27.23
2023-01-09T04:18:43.914Z,27.29
2023-01-09T04:21:12.236Z,27.34
2023-01-09T04:23:40.634Z,27.43
2023-01-09T04:26:09.085Z,27.48
2023-01-09T04:28:37.408Z,27.52
2023-01-09T04:31:06.192Z,27.54
2023-01-09T04:33:34.502Z,27.59
2023-01-09T04:36:02.787Z,27.66
2023-01-09T04:38:31.286Z,27.74
2023-01-09T04:40:59.659Z,27.78
2023-01-09T04:43:27.940Z,27.83
2023-01-09T04:45:56.342Z,27.90
2023-01-09T04:48:24.737Z,27.92
2023-01-09T04:50:53.068Z,27.93
2023-01-09T04:53:21.432Z,27.91
2023-01-09T04:55:49.696Z,27.90
2023-01-09T04:58:17.974Z,27.89
2023-01-09T05:00:46.361Z,27.92
2023-01-09T05:03:14.644Z,27.92
2023-01-09T05:05:42.918Z,27.94
2023-01-09T05:08:11.242Z,27.95
2023-01-09T05:10:39.518Z,27.95
2023-01-09T05:13:07.787Z,27.96
2023-01-09T05:15:36.063Z,27.97
2023-01-09T05:18:04.395Z,27.93
2023-01-09T05:20:32.689Z,27.94
2023-01-09T05:23:01.007Z,27.97
2023-01-09T05:25:29.323Z,27.98
2023-01-09T05:27:57.712Z,27.99
2023-01-09T05:30:26.005Z,28.00
2023-01-09T05:32:54.359Z,28.03
2023-01-09T05:35:23.793Z,28.08
2023-01-09T05:37:52.246Z,28.09
2023-01-09T05:40:20.812Z,28.12
2023-01-09T05:42:49.131Z,28.15
2023-01-09T05:45:17.490Z,28.18
2023-01-09T05:47:47.011Z,28.18
2023-01-09T05:50:16.298Z,28.22
2023-01-09T05:52:44.699Z,28.24
2023-01-09T05:55:14.314Z,28.27
2023-01-09T05:57:42.886Z,28.31
2023-01-09T06:00:11.851Z,28.37
2023-01-09T06:02:40.238Z,28.43
2023-01-09T06:05:09.506Z,28.50
2023-01-09T06:07:40.892Z,28.56
2023-01-09T06:10:12.042Z,28.61
2023-01-09T06:12:40.553Z,28.67
2023-01-09T06:15:09.666Z,28.73
2023-01-09T06:17:37.953Z,28.75
2023-01-09T06:20:06.794Z,28.77
2023-01-09T06:22:35.391Z,28.79
2023-01-09T06:25:04.055Z,28.80
2023-01-09T06:27:32.526Z,28.81
2023-01-09T06:30:00.832Z,28.83
2023-01-09T06:32:29.103Z,28.88
2023-01-09T06:34:57.426Z,28.92
2023-01-09T06:37:25.739Z,28.95
2023-01-09T06:39:55.131Z,28.98
2023-01-09T06:42:23.524Z,29.00
2023-01-09T06:44:52.057Z,29.00
2023-01-09T06:47:20.343Z,29.04
2023-01-09T06:49:48.657Z,29.05
2023-01-09T06:52:16.929Z,29.09
2023-01-09T06:54:45.259Z,29.12
2023-01-09T06:57:16.101Z,29.14
2023-01-09T06:59:44.398Z,29.16
2023-01-09T07:02:20.322Z,29.16
2023-01-09T07:04:49.024Z,29.17
2023-01-09T07:07:17.569Z,29.17
2023-01-09T07:09:45.856Z,29.19
2023-01-09T07:12:15.746Z,29.20
2023-01-09T07:14:44.278Z,29.24
2023-01-09T07:17:15.551Z,29.28
2023-01-09T07:19:43.846Z,29.32
2023-01-09T07:22:12.331Z,29.33
2023-01-09T07:24:40.692Z,29.36
2023-01-09T07:27:09.049Z,29.39
2023-01-09T07:29:37.412Z,29.42
2023-01-09T07:32:06.255Z,29.47
2023-01-09T07:34:34.645Z,29.50
2023-01-09T07:37:02.965Z,29.53
2023-01-09T07:39:31.289Z,29.54
2023-01-09T07:41:59.595Z,29.58
2023-01-09T07:44:27.959Z,29.61
2023-01-09T07:46:56.241Z,29.60
2023-01-09T07:49:26.709Z,29.63
2023-01-09T07:51:56.385Z,29.65
2023-01-09T07:54:24.906Z,29.66
2023-01-09T07:56:53.259Z,29.67
2023-01-09T07:59:25.031Z,29.68
2023-01-09T08:01:53.370Z,29.68
2023-01-09T08:04:21.723Z,29.67
2023-01-09T08:06:50.021Z,29.65
2023-01-09T08:09:18.391Z,29.65
2023-01-09T08:11:46.660Z,29.63
2023-01-09T08:14:15.059Z,29.65
2023-01-09T08:16:43.634Z,29.64
2023-01-09T08:19:13.067Z,29.64
2023-01-09T08:21:41.531Z,29.62
2023-01-09T08:24:10.955Z,29.62
2023-01-09T08:26:39.414Z,29.60
2023-01-09T08:29:07.852Z,29.58
2023-01-09T08:31:37.117Z,29.55
2023-01-09T08:34:06.250Z,29.52
2023-01-09T08:36:35.366Z,29.49
2023-01-09T08:39:04.380Z,29.47
2023-01-09T08:41:51.974Z,29.47
2023-01-09T08:44:39.434Z,29.47
2023-01-09T08:47:08.480Z,29.43
2023-01-09T08:49:39.691Z,29.39
2023-01-09T08:52:09.426Z,29.36
2023-01-09T08:54:41.501Z,29.33
2023-01-09T08:57:10.667Z,29.29
2023-01-09T08:59:39.529Z,29.27
2023-01-09T09:02:08.734Z,29.24
2023-01-09T09:04:37.587Z,29.21
2023-01-09T09:07:05.967Z,29.18
2023-01-09T09:09:34.309Z,29.13
2023-01-09T09:12:02.600Z,29.07
2023-01-09T09:14:49.371Z,29.02
2023-01-09T09:17:17.702Z,28.95
2023-01-09T09:19:45.965Z,28.89
2023-01-09T09:22:14.263Z,28.85
2023-01-09T09:24:42.596Z,28.81
2023-01-09T09:27:10.944Z,28.77
2023-01-09T09:29:39.333Z,28.74
2023-01-09T09:32:07.617Z,28.72
2023-01-09T09:34:36.172Z,28.69
2023-01-09T09:37:04.603Z,28.62
2023-01-09T09:39:33.292Z,28.58
2023-01-09T09:42:31.811Z,28.55
2023-01-09T09:45:18.344Z,28.49
2023-01-09T09:48:01.720Z,28.44
2023-01-09T09:50:35.981Z,28.37
2023-01-09T09:53:39.976Z,28.29
2023-01-09T09:56:13.804Z,28.23
2023-01-09T09:59:04.565Z,28.16
2023-01-09T10:01:44.329Z,28.10
2023-01-09T10:04:18.316Z,28.05
2023-01-09T10:06:50.961Z,27.98
2023-01-09T10:09:27.724Z,27.92
2023-01-09T10:12:07.029Z,27.88
2023-01-09T10:14:35.575Z,27.81
2023-01-09T10:17:31.574Z,27.76
2023-01-09T10:20:56.051Z,27.70
2023-01-09T10:23:24.272Z,27.64
2023-01-09T10:26:05.599Z,27.58
2023-01-09T10:29:05.614Z,27.51
2023-01-09T10:31:48.959Z,27.44
2023-01-09T10:34:55.788Z,27.38
2023-01-09T10:37:31.056Z,27.31
2023-01-09T10:40:20.446Z,27.27
2023-01-09T10:43:03.827Z,27.22
2023-01-09T10:45:41.664Z,27.17
2023-01-09T10:48:42.565Z,27.12
2023-01-09T10:51:23.674Z,27.05
2023-01-09T10:53:55.227Z,27.00
2023-01-09T10:56:35.090Z,26.97
2023-01-09T10:59:03.693Z,26.93
2023-01-09T11:01:39.236Z,26.87
2023-01-09T11:04:25.890Z,26.83
2023-01-09T11:07:23.248Z,26.78
2023-01-09T11:10:15.195Z,26.73
2023-01-09T11:12:44.117Z,26.71
2023-01-09T11:15:21.410Z,26.69
2023-01-09T11:17:53.207Z,26.70
2023-01-09T11:20:24.517Z,26.72
2023-01-09T11:22:58.662Z,26.74
2023-01-09T11:25:29.522Z,26.75
2023-01-09T11:28:09.154Z,26.76
2023-01-09T11:30:52.051Z,26.72
2023-01-09T11:33:26.974Z,26.73
2023-01-09T11:36:16.993Z,26.71
2023-01-09T11:38:55.650Z,26.69
2023-01-09T11:41:31.031Z,26.67
2023-01-09T11:44:01.594Z,26.65
2023-01-09T11:46:41.805Z,26.63
2023-01-09T11:49:16.273Z,26.60
2023-01-09T11:51:45.828Z,26.55
2023-01-09T11:54:26.299Z,26.53
2023-01-09T11:56:54.790Z,26.47
2023-01-09T11:59:28.430Z,26.43
2023-01-09T12:02:11.738Z,26.40
2023-01-09T12:05:04.589Z,26.35
2023-01-09T12:07:59.250Z,26.31
2023-01-09T12:10:48.619Z,26.27
2023-01-09T12:13:31.747Z,26.25
2023-01-09T12:16:11.924Z,26.21
2023-01-09T12:18:57.792Z,26.17
2023-01-09T12:21:34.727Z,26.14
2023-01-09T12:24:21.205Z,26.11
2023-01-09T12:27:17.474Z,26.10
2023-01-09T12:30:20.824Z,26.07
2023-01-09T12:33:03.286Z,26.05
2023-01-09T12:35:42.276Z,26.04
2023-01-09T12:38:16.696Z,26.03
2023-01-09T12:41:08.354Z,26.02
2023-01-09T12:43:39.639Z,26.00
2023-01-09T12:46:25.597Z,25.98
2023-01-09T12:49:18.618Z,25.96
2023-01-09T12:52:05.181Z,25.97
2023-01-09T12:54:59.345Z,25.93
2023-01-09T12:57:47.551Z,25.90
2023-01-09T13:00:33.491Z,25.87
2023-01-09T13:03:19.547Z,25.83
2023-01-09T13:05:50.329Z,25.78
2023-01-09T13:08:41.654Z,25.76
2023-01-09T13:11:19.956Z,25.73
2023-01-09T13:13:59.408Z,25.68
2023-01-09T13:16:38.140Z,25.65
2023-01-09T13:19:22.345Z,25.62
2023-01-09T13:21:51.681Z,25.60
2023-01-09T13:24:56.617Z,25.56
2023-01-09T13:27:28.065Z,25.57
2023-01-09T13:30:17.669Z,25.53
2023-01-09T13:33:21.184Z,25.52
2023-01-09T13:35:58.604Z,25.50
2023-01-09T13:38:32.396Z,25.47
2023-01-09T13:41:30.803Z,25.43
2023-01-09T13:44:18.966Z,25.43
2023-01-09T13:46:52.812Z,25.41
2023-01-09T13:49:54.198Z,25.40
2023-01-09T13:52:48.956Z,25.40
2023-01-09T13:55:29.855Z,25.39
2023-01-09T13:58:07.390Z,25.39
2023-01-09T14:00:48.672Z,25.36
2023-01-09T14:04:06.239Z,25.34
2023-01-09T14:06:34.593Z,25.32
2023-01-09T14:09:24.296Z,25.31
2023-01-09T14:12:05.766Z,25.30
2023-01-09T14:14:36.147Z,25.29
2023-01-09T14:17:18.764Z,25.29
2023-01-09T14:19:47.403Z,25.27
2023-01-09T14:22:45.607Z,25.24
2023-01-09T14:25:27.805Z,25.22
2023-01-09T14:27:56.060Z,25.21
2023-01-09T14:30:32.238Z,25.19
2023-01-09T14:33:29.311Z,25.17
2023-01-09T14:36:11.016Z,25.15
2023-01-09T14:38:43.388Z,25.14
2023-01-09T14:41:58.498Z,25.13
2023-01-09T14:44:48.363Z,25.12
2023-01-09T14:47:19.361Z,25.10
2023-01-09T14:49:59.730Z,25.09
2023-01-09T14:52:30.423Z,25.08
2023-01-09T14:55:02.548Z,25.08
2023-01-09T14:57:35.875Z,25.06
2023-01-09T15:00:17.855Z,25.05
2023-01-09T15:02:48.497Z,25.03
2023-01-09T15:05:22.204Z,25.02
2023-01-09T15:08:03.765Z,25.01
2023-01-09T15:10:39.273Z,25.00
2023-01-09T15:13:15.064Z,25.01
2023-01-09T15:15:51.194Z,24.99
2023-01-09T15:18:25.312Z,24.99
2023-01-09T15:20:59.289Z,24.98
2023-01-09T15:23:32.388Z,24.96
2023-01-09T15:26:26.273Z,24.95
2023-01-09T15:29:02.686Z,24.93
2023-01-09T15:31:31.153Z,24.92
2023-01-09T15:33:59.564Z,24.90
2023-01-09T15:36:31.776Z,24.89
2023-01-09T15:39:00.994Z,24.87
2023-01-09T15:41:49.569Z,24.85
2023-01-09T15:44:26.838Z,24.84
2023-01-09T15:47:00.696Z,24.82
2023-01-09T15:49:29.318Z,24.82
2023-01-09T15:51:57.965Z,24.80
2023-01-09T15:54:32.168Z,24.78
2023-01-09T15:57:28.340Z,24.76
2023-01-09T15:59:58.487Z,24.74
2023-01-09T16:02:46.123Z,24.73
2023-01-09T16:05:19.153Z,24.70
2023-01-09T16:07:51.918Z,24.70
2023-01-09T16:10:27.778Z,24.68
2023-01-09T16:12:56.315Z,24.65
2023-01-09T16:15:24.673Z,24.64
2023-01-09T16:18:21.552Z,24.61
2023-01-09T16:20:50.668Z,24.59
2023-01-09T16:23:21.985Z,24.57
2023-01-09T16:25:50.888Z,24.55
2023-01-09T16:28:31.610Z,24.54
2023-01-09T16:31:01.759Z,24.53
2023-01-09T16:33:32.731Z,24.50
2023-01-09T16:36:01.778Z,24.49
2023-01-09T16:38:30.325Z,24.48
2023-01-09T16:41:20.416Z,24.47
2023-01-09T16:43:48.859Z,24.45
2023-01-09T16:46:20.245Z,24.43
2023-01-09T16:48:49.612Z,24.41
2023-01-09T16:51:23.212Z,24.41
2023-01-09T16:53:51.740Z,24.40
2023-01-09T16:56:27.494Z,24.38
2023-01-09T16:58:55.907Z,24.38
2023-01-09T17:01:24.624Z,24.35
2023-01-09T17:03:53.606Z,24.34
2023-01-09T17:06:30.780Z,24.34
2023-01-09T17:08:59.398Z,24.33
2023-01-09T17:11:34.106Z,24.33
2023-01-09T17:14:03.381Z,24.32
2023-01-09T17:16:31.875Z,24.32
2023-01-09T17:19:00.239Z,24.30
2023-01-09T17:21:30.424Z,24.31
2023-01-09T17:24:20.087Z,24.31
2023-01-09T17:27:10.250Z,24.30
2023-01-09T17:29:38.655Z,24.32
2023-01-09T17:32:07.170Z,24.31
2023-01-09T17:34:35.789Z,24.31
2023-01-09T17:37:04.728Z,24.32
2023-01-09T17:39:33.188Z,24.32
2023-01-09T17:42:02.792Z,24.32
2023-01-09T17:44:31.105Z,24.33
2023-01-09T17:46:59.410Z,24.33
2023-01-09T17:49:28.421Z,24.33
2023-01-09T17:51:56.944Z,24.34
2023-01-09T17:54:25.244Z,24.34
2023-01-09T17:56:54.776Z,24.35
2023-01-09T17:59:23.141Z,24.34
2023-01-09T18:01:51.453Z,24.35
2023-01-09T18:04:19.741Z,24.34
2023-01-09T18:06:49.214Z,24.34
2023-01-09T18:09:18.983Z,24.33
2023-01-09T18:11:49.202Z,24.31
2023-01-09T18:14:18.522Z,24.30
2023-01-09T18:19:14.924Z,24.26
2023-01-09T18:21:43.211Z,24.25
2023-01-09T18:24:11.553Z,24.24
2023-01-09T18:26:39.930Z,24.21
2023-01-09T18:29:08.306Z,24.20
2023-01-09T18:31:36.680Z,24.19
2023-01-09T18:34:06.437Z,24.17
2023-01-09T18:36:34.908Z,24.15
2023-01-09T18:39:06.439Z,24.14
2023-01-09T18:41:34.771Z,24.14
2023-01-09T18:44:03.577Z,24.11
2023-01-09T18:46:33.038Z,24.10
2023-01-09T18:49:03.789Z,24.08
2023-01-09T18:51:34.508Z,24.07
2023-01-09T18:54:02.842Z,24.03
2023-01-09T18:56:31.251Z,24.03
2023-01-09T18:59:00.040Z,24.01
2023-01-09T19:01:30.639Z,24.00
2023-01-09T19:04:01.104Z,23.98
2023-01-09T19:06:31.058Z,23.97
2023-01-09T19:09:02.371Z,23.96
2023-01-09T19:11:32.164Z,23.94
2023-01-09T19:14:00.517Z,23.93
2023-01-09T19:16:28.935Z,23.91
2023-01-09T19:18:59.123Z,23.89
2023-01-09T19:21:27.857Z,23.88
2023-01-09T19:23:56.770Z,23.86
2023-01-09T19:26:27.659Z,23.84
2023-01-09T19:28:58.339Z,23.82
2023-01-09T19:31:29.308Z,23.79
2023-01-09T19:33:58.963Z,23.77
2023-01-09T19:36:28.616Z,23.75
2023-01-09T19:39:01.374Z,23.74
2023-01-09T19:41:30.587Z,23.72
2023-01-09T19:44:01.034Z,23.72
2023-01-09T19:46:31.343Z,23.71
2023-01-09T19:48:59.909Z,23.72
2023-01-09T19:51:28.866Z,23.70
2023-01-09T19:56:29.881Z,23.67
2023-01-09T19:59:04.096Z,23.65
2023-01-09T20:01:39.687Z,23.62
2023-01-09T20:04:14.738Z,23.60
2023-01-09T20:06:48.235Z,23.58
2023-01-09T20:09:23.139Z,23.56
2023-01-09T20:11:51.457Z,23.54
2023-01-09T20:14:20.783Z,23.52
2023-01-09T20:16:49.593Z,23.52
2023-01-09T20:19:18.400Z,23.50
2023-01-09T20:21:47.107Z,23.49
2023-01-09T20:24:17.744Z,23.46
2023-01-09T20:26:47.267Z,23.43
2023-01-09T20:29:15.656Z,23.41
2023-01-09T20:31:44.271Z,23.39
2023-01-09T20:34:16.290Z,23.36
2023-01-09T20:36:45.020Z,23.34
2023-01-09T20:39:13.705Z,23.32
2023-01-09T20:41:42.241Z,23.31
2023-01-09T20:44:15.492Z,23.28
2023-01-09T20:46:48.782Z,23.26
2023-01-09T20:49:21.750Z,23.24
2023-01-09T20:51:54.086Z,23.21
2023-01-09T20:54:23.040Z,23.20
2023-01-09T20:56:51.794Z,23.20
2023-01-09T20:59:23.998Z,23.21
2023-01-09T21:01:52.494Z,23.20
2023-01-09T21:04:20.921Z,23.20
2023-01-09T21:06:50.185Z,23.21
2023-01-09T21:09:19.971Z,23.20
2023-01-09T21:11:48.269Z,23.19
2023-01-09T21:14:16.574Z,23.19
2023-01-09T21:16:53.732Z,23.19
2023-01-09T21:19:23.239Z,23.18
2023-01-09T21:21:53.249Z,23.18
2023-01-09T21:24:21.920Z,23.19
2023-01-09T21:26:50.195Z,23.17
2023-01-09T21:29:18.597Z,23.18
2023-01-09T21:31:47.145Z,23.18
2023-01-09T21:34:18.315Z,23.17
2023-01-09T21:36:49.566Z,23.18
2023-01-09T21:39:20.234Z,23.19
2023-01-09T21:42:06.833Z,23.19
2023-01-09T21:44:53.331Z,23.18
2023-01-09T21:47:21.998Z,23.18
2023-01-09T21:49:50.475Z,23.19
2023-01-09T21:52:19.417Z,23.19
2023-01-09T21:54:47.755Z,23.20
2023-01-09T21:57:16.688Z,23.20
2023-01-09T21:59:45.835Z,23.21
2023-01-09T22:02:16.646Z,23.20
2023-01-09T22:04:49.717Z,23.21
2023-01-09T22:07:18.275Z,23.21
2023-01-09T22:09:46.872Z,23.21
2023-01-09T22:12:15.197Z,23.22
2023-01-09T22:14:43.530Z,23.20
2023-01-09T22:17:11.827Z,23.19
2023-01-09T22:19:40.130Z,23.18
2023-01-09T22:22:09.429Z,23.18
2023-01-09T22:24:37.835Z,23.18
2023-01-09T22:27:06.234Z,23.19
2023-01-09T22:29:35.046Z,23.19
2023-01-09T22:32:03.781Z,23.17
2023-01-09T22:34:32.217Z,23.17
2023-01-09T22:37:00.853Z,23.17
2023-01-09T22:39:29.357Z,23.16
2023-01-09T22:41:57.752Z,23.15
2023-01-09T22:44:26.062Z,23.15
2023-01-09T22:46:54.369Z,23.15
2023-01-09T22:49:22.655Z,23.15
2023-01-09T22:51:50.960Z,23.12
2023-01-09T22:54:20.323Z,23.14
2023-01-09T22:56:51.717Z,23.13
2023-01-09T22:59:20.017Z,23.13
2023-01-09T23:01:48.318Z,23.11
2023-01-09T23:04:17.572Z,23.10
2023-01-09T23:06:45.879Z,23.09
2023-01-09T23:09:14.173Z,23.10
2023-01-09T23:12:00.950Z,23.11
2023-01-09T23:14:29.984Z,23.12
2023-01-09T23:16:58.525Z,23.11
2023-01-09T23:19:27.242Z,23.13
2023-01-09T23:21:55.655Z,23.14
2023-01-09T23:24:24.143Z,23.15
2023-01-09T23:26:53.146Z,23.16
2023-01-09T23:29:21.938Z,23.14
2023-01-09T23:31:50.356Z,23.15
2023-01-09T23:34:21.014Z,23.16
2023-01-09T23:36:49.557Z,23.15
2023-01-09T23:39:18.504Z,23.15
2023-01-09T23:42:05.004Z,23.15
2023-01-09T23:44:34.021Z,23.12
2023-01-09T23:47:02.298Z,23.12
2023-01-09T23:49:30.713Z,23.09
2023-01-09T23:51:59.144Z,23.10
2023-01-09T23:54:27.469Z,23.08
2023-01-09T23:56:57.380Z,23.08
2023-01-09T23:59:25.928Z,23.08
